Time;durP1;ratioP1;P1;durP2;ratioP2;P2;SDS_P1;SDS_P2;PMS_P1;PMS_P2;Temp;Humidity;BMP_temperature;BMP_pressure;BME280_temperature;BME280_humidity;BME280_pressure;Samples;Min_cycle;Max_cycle;Signal;HPM_P1;HPM_P2
2024/01/05 00:00:29;;;;;;;7.15;2.83;;;12.30;71.00;14.00;99702.00;;;;5031729;28;20283;-72
2024/01/05 00:02:59;;;;;;;6.68;2.63;;;12.30;71.00;14.00;99702.00;;;;5042443;28;20586;-72
2024/01/05 00:05:26;;;;;;;5.38;2.70;;;12.30;71.00;14.00;99706.00;;;;5041027;28;20219;-73
2024/01/05 00:07:54;;;;;;;6.20;2.60;;;12.20;71.00;14.00;99699.00;;;;5032179;28;20192;-72
2024/01/05 00:10:21;;;;;;;7.18;2.92;;;12.30;71.00;14.00;99694.00;;;;5050565;28;20207;-72
2024/01/05 00:12:48;;;;;;;6.05;2.28;;;12.30;71.10;14.00;99686.00;;;;5051761;28;20278;-73
2024/01/05 00:15:15;;;;;;;6.00;2.40;;;12.30;71.10;14.00;99683.00;;;;5031614;28;20695;-73
2024/01/05 00:17:42;;;;;;;4.45;2.00;;;12.30;71.10;14.00;99678.00;;;;5032292;28;20216;-72
2024/01/05 00:20:12;;;;;;;3.20;2.38;;;12.30;71.10;14.00;99687.00;;;;5031508;28;20263;-72
2024/01/05 00:22:39;;;;;;;5.70;2.15;;;12.30;71.10;14.00;99683.00;;;;5031745;28;20192;-73
2024/01/05 00:25:07;;;;;;;2.47;1.85;;;12.30;71.10;14.00;99679.00;;;;5031748;28;20198;-73
2024/01/05 00:27:34;;;;;;;5.78;2.60;;;12.30;71.20;14.00;99677.00;;;;5031972;28;20286;-73
2024/01/05 00:30:03;;;;;;;3.72;2.50;;;12.30;71.20;14.00;99675.00;;;;5031536;28;20283;-72
2024/01/05 00:32:30;;;;;;;8.45;2.40;;;12.30;71.20;14.00;99669.00;;;;5031353;28;20278;-72
2024/01/05 00:34:57;;;;;;;7.38;2.85;;;12.30;71.20;14.00;99660.00;;;;5030484;28;20762;-72
2024/01/05 00:37:26;;;;;;;6.28;2.78;;;12.30;71.20;14.00;99653.00;;;;5031931;28;20206;-73
2024/01/05 00:39:53;;;;;;;6.82;2.50;;;12.30;71.20;14.10;99652.00;;;;5031423;28;20192;-72
2024/01/05 00:42:20;;;;;;;5.03;2.00;;;12.30;71.30;14.10;99647.00;;;;5032368;28;20199;-72
2024/01/05 00:44:47;;;;;;;5.03;2.42;;;12.30;71.30;14.10;99646.00;;;;5032935;28;20187;-74
2024/01/05 00:47:14;;;;;;;5.93;2.25;;;12.40;71.30;14.10;99646.00;;;;5016035;28;20224;-72
2024/01/05 00:49:41;;;;;;;5.13;2.30;;;12.40;71.30;14.10;99641.00;;;;5016031;28;20201;-72
2024/01/05 00:52:08;;;;;;;3.38;1.98;;;12.40;71.30;14.10;99645.00;;;;5034941;28;20203;-73
2024/01/05 00:54:36;;;;;;;4.18;1.95;;;12.40;71.40;14.10;99635.00;;;;5035748;28;20188;-72
2024/01/05 00:57:04;;;;;;;4.47;1.92;;;12.40;71.30;14.10;99630.00;;;;5035646;28;20208;-74
2024/01/05 00:59:31;;;;;;;6.60;1.90;;;12.40;71.30;14.10;99627.00;;;;5019925;28;20210;-73
2024/01/05 01:01:58;;;;;;;3.45;2.22;;;12.40;71.30;14.10;99630.00;;;;5037239;28;20199;-73
2024/01/05 01:04:25;;;;;;;3.72;1.90;;;12.40;71.30;14.10;99632.00;;;;5043429;28;20198;-73
2024/01/05 01:06:52;;;;;;;4.78;1.95;;;12.40;71.30;14.10;99629.00;;;;5034875;28;20318;-72
2024/01/05 01:09:19;;;;;;;6.30;2.20;;;12.40;71.30;14.10;99625.00;;;;5035829;28;20292;-72
2024/01/05 01:11:50;;;;;;;6.53;2.50;;;12.40;71.30;14.10;99623.00;;;;5034925;28;20200;-72
2024/01/05 01:14:18;;;;;;;5.40;1.73;;;12.40;71.20;14.10;99621.00;;;;5034583;28;20732;-72
2024/01/05 01:16:45;;;;;;;5.15;2.20;;;12.40;71.10;14.10;99623.00;;;;5035147;28;20226;-73
2024/01/05 01:19:12;;;;;;;7.43;2.00;;;12.40;71.10;14.10;99622.00;;;;5035397;28;20195;-72
2024/01/05 01:21:39;;;;;;;3.75;1.48;;;12.40;71.00;14.10;99616.00;;;;5034950;28;20283;-72
2024/01/05 01:24:06;;;;;;;5.93;1.98;;;12.40;71.00;14.10;99616.00;;;;5035671;28;20197;-72
2024/01/05 01:26:33;;;;;;;5.43;2.28;;;12.40;70.90;14.10;99614.00;;;;5034114;28;20220;-72
2024/01/05 01:29:02;;;;;;;5.72;1.80;;;12.40;70.90;14.00;99608.00;;;;5035232;28;20201;-72
2024/01/05 01:31:29;;;;;;;4.65;1.73;;;12.40;70.90;14.00;99601.00;;;;5034249;28;20547;-72
2024/01/05 01:33:59;;;;;;;6.75;2.60;;;12.30;70.80;14.00;99604.00;;;;5035175;28;20657;-72
2024/01/05 01:36:26;;;;;;;6.05;1.80;;;12.30;70.80;14.00;99591.00;;;;5034909;28;20231;-72
2024/01/05 01:38:53;;;;;;;3.17;1.40;;;12.30;70.90;14.00;99588.00;;;;5035103;28;20193;-72
2024/01/05 01:41:21;;;;;;;4.65;1.88;;;12.30;71.70;14.00;99587.00;;;;5034439;28;20206;-73
2024/01/05 01:43:48;;;;;;;4.00;1.83;;;12.30;71.10;14.00;99585.00;;;;5034372;28;20618;-72
2024/01/05 01:46:16;;;;;;;3.50;1.65;;;12.30;71.10;14.00;99582.00;;;;5034603;28;20593;-72
2024/01/05 01:48:44;;;;;;;4.20;1.50;;;12.30;71.20;14.00;99578.00;;;;5034732;28;20203;-72
2024/01/05 01:51:13;;;;;;;7.50;2.20;;;12.30;71.20;14.00;99570.00;;;;5043273;28;20195;-73
2024/01/05 01:53:40;;;;;;;4.65;1.80;;;12.30;71.20;14.00;99571.00;;;;5042251;28;20201;-73
2024/01/05 01:56:11;;;;;;;3.63;1.85;;;12.30;71.20;14.00;99560.00;;;;5033718;28;20198;-72
2024/01/05 01:58:39;;;;;;;5.90;1.55;;;12.30;71.30;14.00;99561.00;;;;5013508;28;20260;-72
2024/01/05 02:01:07;;;;;;;5.38;1.92;;;12.30;71.30;14.10;99555.00;;;;5024036;28;20204;-72
2024/01/05 02:03:36;;;;;;;6.03;1.77;;;12.30;71.30;14.00;99549.00;;;;5036608;28;20194;-73
2024/01/05 02:06:03;;;;;;;4.47;1.70;;;12.30;71.30;14.00;99547.00;;;;5033496;28;20224;-72
2024/01/05 02:08:30;;;;;;;3.65;1.70;;;12.30;72.00;14.10;99548.00;;;;5045349;28;20207;-73
2024/01/05 02:10:58;;;;;;;4.88;1.45;;;12.30;71.40;14.10;99535.00;;;;5038118;28;20205;-72
2024/01/05 02:13:25;;;;;;;4.20;1.70;;;12.30;71.40;14.10;99537.00;;;;5033748;28;20198;-72
2024/01/05 02:15:52;;;;;;;4.38;1.45;;;12.40;71.50;14.10;99529.00;;;;5034061;28;20207;-72
2024/01/05 02:18:19;;;;;;;4.68;1.70;;;12.40;71.50;14.10;99520.00;;;;5013766;28;20293;-72
2024/01/05 02:20:47;;;;;;;4.53;1.73;;;12.40;71.50;14.10;99518.00;;;;5020860;28;20198;-73
2024/01/05 02:23:23;;;;;;;3.38;1.60;;;12.40;71.50;14.10;99509.00;;;;5034458;28;20197;-72
2024/01/05 02:25:50;;;;;;;5.93;1.52;;;12.40;71.60;14.10;99512.00;;;;5039571;28;20980;-72
2024/01/05 02:28:19;;;;;;;6.78;2.17;;;12.40;71.50;14.10;99513.00;;;;5033912;28;20201;-72
2024/01/05 02:30:46;;;;;;;4.57;1.55;;;12.40;71.50;14.20;99502.00;;;;5034065;28;20283;-72
2024/01/05 02:33:17;;;;;;;2.90;1.00;;;12.40;72.20;14.20;99497.00;;;;5033461;28;20425;-72
2024/01/05 02:35:44;;;;;;;3.92;1.25;;;12.40;71.50;14.20;99490.00;;;;5033013;28;20223;-73
2024/01/05 02:38:11;;;;;;;6.80;1.92;;;12.50;71.60;14.20;99480.00;;;;5034359;28;20283;-72
2024/01/05 02:40:39;;;;;;;2.67;1.00;;;12.50;71.60;14.20;99484.00;;;;5033128;28;20200;-73
2024/01/05 02:43:06;;;;;;;5.55;1.10;;;12.40;71.50;14.20;99495.00;;;;5034401;28;20200;-73
2024/01/05 02:45:33;;;;;;;4.13;1.52;;;12.50;71.60;14.20;99479.00;;;;5033226;28;20197;-73
2024/01/05 02:48:01;;;;;;;5.45;1.30;;;12.50;71.60;14.20;99476.00;;;;5033490;28;20251;-73
2024/01/05 02:50:28;;;;;;;4.28;1.27;;;12.50;71.60;14.20;99468.00;;;;5033407;28;20196;-73
2024/01/05 02:52:55;;;;;;;4.93;1.30;;;12.50;71.70;14.20;99468.00;;;;5033562;28;20204;-72
2024/01/05 02:55:22;;;;;;;1.83;0.80;;;12.50;71.70;14.20;99460.00;;;;5033409;28;20199;-72
2024/01/05 02:57:50;;;;;;;4.72;1.10;;;12.60;71.70;14.30;99460.00;;;;5033026;28;20283;-72
2024/01/05 03:00:18;;;;;;;4.28;1.35;;;12.60;71.70;14.30;99457.00;;;;5033790;28;20192;-73
2024/01/05 03:02:45;;;;;;;8.70;1.52;;;12.60;71.80;14.30;99449.00;;;;5041901;28;20299;-72
2024/01/05 03:05:12;;;;;;;3.90;1.20;;;12.60;71.70;14.30;99450.00;;;;5035472;28;20296;-73
2024/01/05 03:07:40;;;;;;;3.47;0.90;;;12.60;71.70;14.30;99446.00;;;;5032651;28;20220;-72
2024/01/05 03:10:08;;;;;;;4.40;1.02;;;12.70;71.80;14.30;99443.00;;;;5032316;28;20224;-72
2024/01/05 03:12:35;;;;;;;3.38;0.82;;;12.70;71.80;14.30;99442.00;;;;5033165;28;20202;-73
2024/01/05 03:15:05;;;;;;;4.78;1.23;;;12.70;71.80;14.30;99444.00;;;;5032228;28;20666;-73
2024/01/05 03:17:32;;;;;;;5.28;1.27;;;12.70;71.80;14.40;99434.00;;;;5045401;28;20685;-73
2024/01/05 03:20:00;;;;;;;3.60;1.25;;;12.70;71.70;14.40;99435.00;;;;5033028;28;20200;-73
2024/01/05 03:22:27;;;;;;;4.97;0.93;;;12.70;71.70;14.40;99431.00;;;;5032088;28;20204;-73
2024/01/05 03:24:54;;;;;;;4.35;1.00;;;12.70;71.70;14.40;99421.00;;;;5032557;28;20204;-73
2024/01/05 03:27:21;;;;;;;2.50;0.77;;;12.70;71.60;14.40;99413.00;;;;5032862;28;20216;-73
2024/01/05 03:29:48;;;;;;;3.50;1.40;;;12.80;71.70;14.40;99414.00;;;;5032273;28;20208;-73
2024/01/05 03:32:17;;;;;;;5.50;0.82;;;12.80;71.70;14.40;99409.00;;;;5032967;28;20204;-73
2024/01/05 03:34:44;;;;;;;2.85;0.90;;;12.80;71.60;14.40;99410.00;;;;5044806;28;20216;-73
2024/01/05 03:37:11;;;;;;;3.25;1.00;;;12.80;71.60;14.50;99405.00;;;;5032536;28;20665;-73
2024/01/05 03:39:38;;;;;;;4.20;1.13;;;12.80;71.50;14.40;99399.00;;;;5031882;28;20288;-73
2024/01/05 03:42:05;;;;;;;6.57;1.77;;;12.80;71.50;14.50;99406.00;;;;5032283;28;20288;-73
2024/01/05 03:44:32;;;;;;;3.30;1.00;;;12.80;71.40;14.50;99397.00;;;;5032519;28;20282;-73
2024/01/05 03:46:59;;;;;;;4.03;1.02;;;12.90;71.50;14.50;99387.00;;;;5032113;28;20226;-73
2024/01/05 03:49:28;;;;;;;5.13;1.00;;;12.80;71.40;14.50;99392.00;;;;5034524;28;20200;-73
2024/01/05 03:51:55;;;;;;;1.70;1.10;;;12.90;71.40;14.50;99387.00;;;;5044149;28;20650;-73
2024/01/05 03:54:22;;;;;;;5.40;1.05;;;12.90;71.40;14.50;99387.00;;;;5032246;28;20192;-73
2024/01/05 03:56:49;;;;;;;2.15;0.77;;;12.90;71.40;14.50;99384.00;;;;5031806;28;20658;-73
2024/01/05 03:59:16;;;;;;;3.65;1.15;;;12.90;71.30;14.50;99368.00;;;;5032392;28;20215;-73
2024/01/05 04:01:44;;;;;;;1.80;0.55;;;12.90;71.20;14.50;99374.00;;;;5031692;28;20196;-74
2024/01/05 04:04:11;;;;;;;2.55;0.82;;;12.90;71.20;14.50;99361.00;;;;5032731;28;20287;-73
2024/01/05 04:06:41;;;;;;;5.22;0.88;;;12.90;71.20;14.50;99363.00;;;;5032141;28;20220;-73
2024/01/05 04:09:09;;;;;;;4.07;1.02;;;12.90;71.20;14.60;99356.00;;;;5031473;28;20200;-73
2024/01/05 04:11:37;;;;;;;4.88;0.75;;;12.90;71.20;14.60;99346.00;;;;5031788;28;20760;-73
2024/01/05 04:14:05;;;;;;;6.95;1.38;;;13.00;71.20;14.60;99349.00;;;;5031225;28;20199;-75
2024/01/05 04:16:32;;;;;;;2.25;0.70;;;13.00;71.10;14.60;99342.00;;;;5031641;28;20215;-73
2024/01/05 04:18:59;;;;;;;1.88;0.75;;;12.90;71.00;14.60;99338.00;;;;5031448;28;20578;-73
2024/01/05 04:21:26;;;;;;;1.40;0.57;;;12.90;71.40;14.60;99332.00;;;;5031345;28;20282;-73
2024/01/05 04:23:56;;;;;;;2.13;1.10;;;12.90;70.90;14.50;99337.00;;;;5032192;28;20200;-74
2024/01/05 04:26:23;;;;;;;2.95;0.90;;;12.90;70.90;14.50;99331.00;;;;5031331;28;20288;-73
2024/01/05 04:28:50;;;;;;;2.97;1.20;;;12.90;70.90;14.50;99326.00;;;;5030775;28;20205;-73
2024/01/05 04:31:17;;;;;;;3.33;1.05;;;12.90;70.90;14.50;99327.00;;;;5031359;28;20199;-74
2024/01/05 04:33:44;;;;;;;4.35;1.00;;;13.00;70.90;14.50;99314.00;;;;5027750;28;20232;-73
2024/01/05 04:36:15;;;;;;;3.17;0.82;;;12.90;70.80;14.50;99325.00;;;;5023358;28;20223;-73
2024/01/05 04:38:42;;;;;;;2.58;0.82;;;12.90;70.80;14.50;99318.00;;;;5031325;28;20262;-74
2024/01/05 04:41:13;;;;;;;3.55;1.17;;;12.90;70.80;14.50;99306.00;;;;5039563;28;20290;-73
2024/01/05 04:43:40;;;;;;;3.78;0.77;;;12.90;70.80;14.50;99312.00;;;;5043204;28;20222;-73
2024/01/05 04:46:08;;;;;;;3.40;0.82;;;12.90;70.70;14.50;99305.00;;;;5031273;28;20201;-73
2024/01/05 04:48:35;;;;;;;4.22;1.25;;;12.90;70.80;14.50;99296.00;;;;5031899;28;20239;-73
2024/01/05 04:51:04;;;;;;;1.95;0.85;;;12.90;71.40;14.50;99296.00;;;;5031624;28;20188;-73
2024/01/05 04:53:31;;;;;;;2.42;0.82;;;12.90;70.70;14.50;99290.00;;;;5031252;28;20283;-73
2024/01/05 04:55:58;;;;;;;4.88;0.75;;;12.90;70.70;14.50;99294.00;;;;5031620;28;20566;-73
2024/01/05 04:58:26;;;;;;;2.70;1.02;;;12.90;70.70;14.50;99295.00;;;;5041312;28;20666;-74
2024/01/05 05:00:54;;;;;;;1.52;0.50;;;12.90;70.70;14.50;99293.00;;;;5042721;28;20189;-73
2024/01/05 05:03:21;;;;;;;3.65;1.23;;;12.80;70.60;14.50;99284.00;;;;5032108;28;20207;-73
2024/01/05 05:05:48;;;;;;;2.53;1.10;;;12.90;70.60;14.40;99287.00;;;;5031251;28;20198;-73
2024/01/05 05:08:15;;;;;;;2.45;0.70;;;12.80;70.60;14.50;99277.00;;;;5031506;28;20226;-73
2024/01/05 05:10:42;;;;;;;3.63;1.10;;;12.90;70.60;14.50;99271.00;;;;5031100;28;20224;-73
2024/01/05 05:13:10;;;;;;;3.53;0.93;;;12.90;70.60;14.50;99271.00;;;;5030431;28;20544;-73
2024/01/05 05:15:39;;;;;;;3.28;0.95;;;12.90;70.60;14.40;99265.00;;;;5043076;28;20196;-73
2024/01/05 05:18:06;;;;;;;2.40;0.60;;;12.80;70.50;14.50;99265.00;;;;5035006;28;20220;-73
2024/01/05 05:20:33;;;;;;;6.32;1.15;;;12.80;70.50;14.50;99251.00;;;;5031282;28;20293;-73
2024/01/05 05:23:00;;;;;;;3.05;0.80;;;12.80;70.50;14.50;99266.00;;;;5030959;28;20192;-74
2024/01/05 05:25:28;;;;;;;4.25;0.70;;;12.80;70.40;14.50;99261.00;;;;5031041;28;20199;-74
2024/01/05 05:27:55;;;;;;;2.40;0.82;;;12.80;70.40;14.40;99258.00;;;;5031321;28;20242;-74
2024/01/05 05:30:23;;;;;;;5.72;1.05;;;12.90;70.40;14.40;99251.00;;;;5031008;28;20676;-73
2024/01/05 05:32:51;;;;;;;1.27;0.50;;;12.90;70.40;14.40;99254.00;;;;5035051;28;20205;-73
2024/01/05 05:35:18;;;;;;;3.55;0.70;;;12.80;70.30;14.40;99260.00;;;;5033553;28;20589;-73
2024/01/05 05:37:45;;;;;;;1.98;0.85;;;12.80;70.30;14.40;99264.00;;;;5034970;28;20292;-74
2024/01/05 05:40:13;;;;;;;2.53;0.88;;;12.80;70.30;14.50;99267.00;;;;5034436;28;20204;-74
2024/01/05 05:42:40;;;;;;;1.95;0.45;;;12.90;70.40;14.50;99277.00;;;;5034420;28;20197;-75
2024/01/05 05:45:09;;;;;;;2.97;0.68;;;12.90;70.40;14.40;99259.00;;;;5018137;28;20200;-74
2024/01/05 05:47:36;;;;;;;1.63;0.90;;;12.80;70.30;14.40;99262.00;;;;5034645;28;20220;-74
2024/01/05 05:50:06;;;;;;;1.85;0.65;;;12.80;70.30;14.40;99266.00;;;;5037999;28;20203;-73
2024/01/05 05:52:34;;;;;;;3.60;0.90;;;12.80;70.30;14.40;99264.00;;;;5034792;28;20206;-74
2024/01/05 05:55:05;;;;;;;1.83;0.55;;;12.80;70.30;14.40;99267.00;;;;5034094;28;20231;-74
2024/01/05 05:57:32;;;;;;;4.00;0.60;;;12.80;70.20;14.40;99257.00;;;;5033969;28;20203;-74
2024/01/05 05:59:59;;;;;;;2.42;0.88;;;12.80;70.30;14.40;99256.00;;;;5034332;28;20231;-73
2024/01/05 06:02:27;;;;;;;2.08;0.68;;;12.80;70.30;14.40;99264.00;;;;5030419;28;20611;-74
2024/01/05 06:04:54;;;;;;;1.85;0.50;;;12.80;70.30;14.40;99258.00;;;;5034054;28;20197;-74
2024/01/05 06:07:24;;;;;;;1.27;0.65;;;12.80;70.30;14.30;99251.00;;;;5034153;28;20254;-73
2024/01/05 06:09:51;;;;;;;3.05;0.63;;;12.80;70.20;14.30;99251.00;;;;5034219;28;20287;-73
2024/01/05 06:12:18;;;;;;;2.35;0.85;;;12.70;70.20;14.30;99251.00;;;;5033870;28;20203;-74
2024/01/05 06:14:45;;;;;;;1.45;0.80;;;12.70;70.90;14.30;99260.00;;;;5033838;28;20196;-73
2024/01/05 06:17:12;;;;;;;3.22;0.95;;;12.70;70.60;14.30;99256.00;;;;5033866;28;20307;-73
2024/01/05 06:19:39;;;;;;;1.58;0.98;;;12.70;70.30;14.30;99251.00;;;;5033897;28;20200;-73
2024/01/05 06:22:07;;;;;;;1.42;0.70;;;12.70;70.30;14.30;99251.00;;;;5034133;28;20192;-73
2024/01/05 06:24:36;;;;;;;1.52;0.50;;;12.70;70.40;14.30;99251.00;;;;5035525;28;20200;-73
2024/01/05 06:27:03;;;;;;;2.28;0.70;;;12.70;70.40;14.30;99243.00;;;;5033924;28;20200;-73
2024/01/05 06:29:30;;;;;;;2.72;0.57;;;12.70;70.30;14.30;99234.00;;;;5034093;28;20568;-73
2024/01/05 06:31:57;;;;;;;1.52;0.80;;;12.70;70.20;14.30;99250.00;;;;5033821;28;20300;-73
2024/01/05 06:34:24;;;;;;;1.50;0.60;;;12.70;70.10;14.20;99251.00;;;;5033440;28;20255;-73
2024/01/05 06:36:51;;;;;;;3.95;0.80;;;12.60;70.10;14.30;99251.00;;;;5032746;28;20188;-73
2024/01/05 06:39:18;;;;;;;0.90;0.50;;;12.60;70.20;14.20;99260.00;;;;5034489;28;20283;-73
2024/01/05 06:41:47;;;;;;;1.38;0.55;;;12.60;70.20;14.20;99260.00;;;;5033425;28;20696;-73
2024/01/05 06:44:14;;;;;;;1.75;0.70;;;12.60;70.90;14.30;99267.00;;;;5032721;28;20620;-73
2024/01/05 06:46:41;;;;;;;3.28;1.17;;;12.60;70.30;14.20;99254.00;;;;5033986;28;20192;-73
2024/01/05 06:49:08;;;;;;;2.92;0.90;;;12.60;70.20;14.20;99263.00;;;;5033601;28;20322;-73
2024/01/05 06:51:38;;;;;;;3.30;1.17;;;12.60;70.20;14.20;99268.00;;;;5033308;28;20222;-73
2024/01/05 06:54:05;;;;;;;3.10;0.70;;;12.60;70.20;14.20;99260.00;;;;5034003;28;20204;-73
2024/01/05 06:56:33;;;;;;;1.60;0.60;;;12.60;70.20;14.20;99261.00;;;;5036513;28;20210;-73
2024/01/05 06:59:03;;;;;;;2.70;0.80;;;12.60;70.20;14.20;99255.00;;;;5051035;28;20209;-73
2024/01/05 07:01:31;;;;;;;1.83;0.82;;;12.60;70.20;14.20;99267.00;;;;5033208;28;20291;-73
2024/01/05 07:03:58;;;;;;;1.23;0.55;;;12.50;70.10;14.20;99267.00;;;;5033505;28;20207;-73
2024/01/05 07:06:25;;;;;;;1.00;0.40;;;12.50;70.10;14.20;99260.00;;;;5024739;28;20215;-73
2024/01/05 07:08:52;;;;;;;2.90;0.52;;;12.50;70.10;14.20;99269.00;;;;5013417;28;20230;-74
2024/01/05 07:11:23;;;;;;;1.95;0.43;;;12.50;70.10;14.10;99268.00;;;;5020772;28;20207;-73
2024/01/05 07:13:51;;;;;;;1.08;0.30;;;12.50;70.00;14.10;99274.00;;;;5033390;28;20597;-73
2024/01/05 07:16:21;;;;;;;0.40;0.20;;;12.50;69.80;14.10;99271.00;;;;5032586;28;20735;-72
2024/01/05 07:18:49;;;;;;;1.42;0.65;;;12.50;69.70;14.10;99266.00;;;;5032798;28;20194;-73
2024/01/05 07:21:17;;;;;;;0.95;0.30;;;12.50;69.50;14.00;99275.00;;;;5032781;28;20684;-73
2024/01/05 07:23:45;;;;;;;0.60;0.30;;;12.40;69.40;14.00;99282.00;;;;5033042;28;20294;-73
2024/01/05 07:26:13;;;;;;;1.90;0.40;;;12.40;69.40;14.00;99276.00;;;;5015146;28;20291;-73
2024/01/05 07:28:41;;;;;;;0.68;0.30;;;12.40;69.40;13.90;99286.00;;;;5032657;28;20228;-73
2024/01/05 07:31:09;;;;;;;0.57;0.17;;;12.40;69.40;14.00;99285.00;;;;5033210;28;20295;-73
2024/01/05 07:33:40;;;;;;;0.52;0.15;;;12.30;69.30;13.90;99278.00;;;;5033115;28;20254;-73
2024/01/05 07:36:08;;;;;;;1.85;0.35;;;12.30;69.30;13.90;99282.00;;;;5032274;28;20228;-73
2024/01/05 07:38:35;;;;;;;0.52;0.20;;;12.30;69.30;13.90;99286.00;;;;5032885;28;20279;-73
2024/01/05 07:41:03;;;;;;;0.17;0.15;;;12.30;69.20;13.80;99278.00;;;;5032698;28;20195;-73
2024/01/05 07:43:31;;;;;;;1.52;0.30;;;12.20;69.70;13.80;99278.00;;;;5032224;28;20590;-73
2024/01/05 07:45:58;;;;;;;0.63;0.20;;;12.20;69.00;13.80;99280.00;;;;5032282;28;20192;-73
2024/01/05 07:48:25;;;;;;;0.20;0.10;;;12.10;69.00;13.80;99277.00;;;;5033243;28;20239;-73
2024/01/05 07:50:54;;;;;;;0.47;0.20;;;12.10;69.10;13.70;99279.00;;;;5032239;28;20654;-73
2024/01/05 07:53:21;;;;;;;0.38;0.10;;;12.10;69.20;13.70;99271.00;;;;5031776;28;20564;-73
2024/01/05 07:55:48;;;;;;;0.77;0.20;;;12.10;69.20;13.70;99275.00;;;;5031277;28;20607;-73
2024/01/05 07:58:15;;;;;;;0.20;0.10;;;12.10;69.30;13.70;99264.00;;;;5032621;28;20299;-72
2024/01/05 08:00:42;;;;;;;0.10;0.00;;;12.10;69.40;13.70;99263.00;;;;5031734;28;20190;-73
2024/01/05 08:03:10;;;;;;;0.22;0.10;;;12.00;69.30;13.70;99259.00;;;;5032674;28;20204;-73
2024/01/05 08:05:37;;;;;;;0.28;0.10;;;12.00;69.30;13.70;99256.00;;;;5032669;28;20587;-73
2024/01/05 08:08:07;;;;;;;1.73;0.40;;;12.00;69.30;13.60;99256.00;;;;5031736;28;20283;-73
2024/01/05 08:10:34;;;;;;;0.35;0.10;;;12.00;69.10;13.60;99256.00;;;;5031892;28;20235;-73
2024/01/05 08:13:01;;;;;;;0.10;0.10;;;12.00;69.10;13.60;99253.00;;;;5020034;28;20722;-73
2024/01/05 08:15:28;;;;;;;0.45;0.20;;;11.90;69.00;13.50;99258.00;;;;5031520;28;20208;-73
2024/01/05 08:17:55;;;;;;;0.52;0.15;;;11.90;69.10;13.50;99248.00;;;;5032028;28;20226;-73
2024/01/05 08:20:22;;;;;;;0.75;0.40;;;11.90;69.10;13.50;99254.00;;;;5031441;28;20200;-73
2024/01/05 08:22:49;;;;;;;0.75;0.28;;;11.80;69.10;13.50;99253.00;;;;5032356;28;20192;-73
2024/01/05 08:25:18;;;;;;;0.73;0.10;;;11.80;69.20;13.40;99247.00;;;;5031787;28;20732;-73
2024/01/05 08:27:45;;;;;;;0.90;0.20;;;11.80;69.20;13.40;99251.00;;;;5031326;28;20242;-73
2024/01/05 08:30:13;;;;;;;0.40;0.30;;;11.80;69.30;13.40;99246.00;;;;5032086;28;20196;-72
2024/01/05 08:32:42;;;;;;;2.45;0.20;;;11.80;69.30;13.40;99243.00;;;;5031084;28;20680;-73
2024/01/05 08:35:09;;;;;;;0.57;0.20;;;11.70;69.30;13.40;99240.00;;;;5031531;28;20262;-72
2024/01/05 08:37:36;;;;;;;0.30;0.20;;;11.70;69.40;13.30;99240.00;;;;5031492;28;20284;-73
2024/01/05 08:40:04;;;;;;;0.65;0.20;;;11.70;69.30;13.30;99236.00;;;;5030569;28;20674;-73
2024/01/05 08:42:32;;;;;;;0.47;0.10;;;11.70;69.40;13.30;99238.00;;;;5030497;28;20198;-73
2024/01/05 08:44:59;;;;;;;0.60;0.20;;;11.70;69.50;13.30;99236.00;;;;5031869;28;20204;-73
2024/01/05 08:47:26;;;;;;;0.38;0.20;;;11.70;69.60;13.30;99227.00;;;;5031407;28;20206;-73
2024/01/05 08:49:54;;;;;;;0.52;0.25;;;11.60;69.60;13.30;99230.00;;;;5031226;28;20228;-73
2024/01/05 08:52:21;;;;;;;0.43;0.20;;;11.60;69.70;13.30;99230.00;;;;5031801;28;20192;-73
2024/01/05 08:54:48;;;;;;;0.30;0.10;;;11.60;69.70;13.30;99233.00;;;;5031413;28;20275;-72
2024/01/05 08:57:15;;;;;;;0.70;0.20;;;11.60;69.80;13.30;99225.00;;;;5037753;28;20204;-73
2024/01/05 08:59:43;;;;;;;0.32;0.20;;;11.60;69.80;13.30;99233.00;;;;5031100;28;20662;-73
2024/01/05 09:02:10;;;;;;;0.57;0.30;;;11.60;69.80;13.30;99228.00;;;;5031261;28;20204;-73
2024/01/05 09:04:37;;;;;;;0.50;0.20;;;11.60;69.80;13.30;99228.00;;;;5031271;28;20283;-73
2024/01/05 09:07:05;;;;;;;0.57;0.30;;;11.60;69.80;13.30;99229.00;;;;5033393;28;20863;-73
2024/01/05 09:09:32;;;;;;;0.28;0.17;;;11.60;69.80;13.30;99239.00;;;;5035515;28;20231;-73
2024/01/05 09:11:59;;;;;;;0.43;0.30;;;11.60;69.80;13.30;99231.00;;;;5034728;28;20287;-72
2024/01/05 09:14:26;;;;;;;0.95;0.52;;;11.60;69.80;13.30;99237.00;;;;5054259;28;20668;-73
2024/01/05 09:16:54;;;;;;;0.82;0.50;;;11.60;69.80;13.20;99235.00;;;;5041122;28;20220;-72
2024/01/05 09:19:21;;;;;;;0.98;0.45;;;11.60;69.80;13.20;99234.00;;;;5034800;28;20661;-74
2024/01/05 09:21:49;;;;;;;0.45;0.20;;;11.60;69.70;13.20;99235.00;;;;5034958;28;20270;-72
2024/01/05 09:24:16;;;;;;;1.60;0.52;;;11.50;69.70;13.20;99229.00;;;;5034485;28;20696;-74
2024/01/05 09:26:43;;;;;;;0.30;0.30;;;11.50;69.70;13.20;99242.00;;;;5035314;28;20662;-72
2024/01/05 09:29:11;;;;;;;1.27;0.50;;;11.50;69.80;13.10;99235.00;;;;5035116;28;20220;-73
2024/01/05 09:31:38;;;;;;;0.47;0.35;;;11.50;69.60;13.10;99251.00;;;;5039546;28;20195;-73
2024/01/05 09:34:07;;;;;;;0.98;0.43;;;11.50;70.20;13.10;99248.00;;;;5034891;28;20200;-73
2024/01/05 09:36:39;;;;;;;0.60;0.43;;;11.50;69.60;13.10;99249.00;;;;5034581;28;20228;-72
2024/01/05 09:39:06;;;;;;;2.45;0.60;;;11.40;69.60;13.00;99256.00;;;;5034481;28;20203;-73
2024/01/05 09:41:33;;;;;;;0.75;0.60;;;11.40;69.60;13.00;99259.00;;;;5035441;28;20200;-72
2024/01/05 09:44:03;;;;;;;2.65;0.40;;;11.40;69.50;12.90;99262.00;;;;5033912;28;20834;-73
2024/01/05 09:46:30;;;;;;;0.85;0.40;;;11.40;69.50;12.90;99259.00;;;;5034677;28;20231;-72
2024/01/05 09:48:59;;;;;;;0.60;0.43;;;11.30;69.40;12.90;99248.00;;;;5034133;28;20228;-72
2024/01/05 09:51:30;;;;;;;1.63;0.50;;;11.30;69.30;12.80;99254.00;;;;5034326;28;21205;-73
2024/01/05 09:53:58;;;;;;;1.08;0.60;;;11.30;69.30;12.90;99253.00;;;;5025375;28;20205;-73
2024/01/05 09:56:27;;;;;;;0.80;0.50;;;11.20;69.30;12.80;99257.00;;;;5016541;28;20205;-73
2024/01/05 09:58:55;;;;;;;0.77;0.55;;;11.20;69.30;12.80;99252.00;;;;5034190;28;20283;-73
2024/01/05 10:01:27;;;;;;;0.68;0.68;;;11.20;69.40;12.70;99255.00;;;;5034304;28;20370;-72
2024/01/05 10:03:59;;;;;;;0.70;0.57;;;11.20;69.40;12.70;99248.00;;;;5034663;28;20200;-72
2024/01/05 10:06:31;;;;;;;1.05;0.75;;;11.10;69.40;12.70;99245.00;;;;5034654;28;20195;-72
2024/01/05 10:09:00;;;;;;;0.77;0.73;;;11.10;69.50;12.70;99249.00;;;;5033887;28;20737;-73
2024/01/05 10:11:32;;;;;;;3.10;1.08;;;11.10;70.20;12.60;99248.00;;;;5033904;28;20666;-72
2024/01/05 10:14:01;;;;;;;1.40;0.88;;;11.10;69.50;12.70;99252.00;;;;5033827;28;20236;-72
2024/01/05 10:16:34;;;;;;;0.90;0.80;;;11.10;69.50;12.60;99254.00;;;;5033201;28;20212;-73
2024/01/05 10:19:12;;;;;;;0.60;0.60;;;11.00;69.60;12.60;99252.00;;;;5034168;28;20192;-72
2024/01/05 10:21:41;;;;;;;0.70;0.65;;;11.00;69.70;12.60;99250.00;;;;5034297;28;20274;-72
2024/01/05 10:24:16;;;;;;;0.60;0.60;;;11.00;69.70;12.60;99256.00;;;;5033821;28;20200;-73
2024/01/05 10:26:43;;;;;;;1.00;0.90;;;11.00;69.90;12.60;99260.00;;;;5033896;28;20660;-73
2024/01/05 10:29:14;;;;;;;1.05;0.75;;;11.00;69.90;12.60;99259.00;;;;5028193;28;20219;-73
2024/01/05 10:31:41;;;;;;;0.70;0.70;;;11.00;69.90;12.60;99251.00;;;;5032796;28;20685;-72
2024/01/05 10:34:09;;;;;;;1.20;1.00;;;11.00;69.90;12.60;99257.00;;;;5033843;28;20214;-72
2024/01/05 10:36:37;;;;;;;1.17;1.00;;;11.00;70.00;12.70;99261.00;;;;5032776;28;20231;-72
2024/01/05 10:39:08;;;;;;;0.90;0.80;;;11.00;70.00;12.60;99258.00;;;;5033808;28;20216;-72
2024/01/05 10:41:36;;;;;;;1.10;1.00;;;11.00;70.70;12.70;99246.00;;;;5033418;28;20200;-73
2024/01/05 10:44:04;;;;;;;1.00;0.95;;;11.00;70.00;12.60;99259.00;;;;5033036;28;20670;-73
2024/01/05 10:46:33;;;;;;;1.25;1.10;;;11.00;70.00;12.60;99252.00;;;;5033463;28;20685;-73
2024/01/05 10:49:02;;;;;;;1.23;1.13;;;11.00;70.00;12.60;99259.00;;;;5033402;28;20311;-73
2024/01/05 10:51:31;;;;;;;1.58;1.15;;;11.00;70.00;12.60;99247.00;;;;5032271;28;20579;-73
2024/01/05 10:53:59;;;;;;;1.40;1.05;;;11.00;70.00;12.60;99249.00;;;;5033318;28;20195;-73
2024/01/05 10:56:31;;;;;;;0.80;0.80;;;11.00;70.00;12.60;99249.00;;;;5033195;28;20641;-74